createdAt,value
2022-09-21T00:01:48.151Z,8.10
2022-09-21T00:04:36.775Z,8.10
2022-09-21T00:07:24.176Z,8.10
2022-09-21T00:20:46.456Z,8.10
2022-09-21T00:23:35.643Z,8.00
2022-09-21T00:26:25.097Z,8.00
2022-09-21T00:29:13.943Z,8.10
2022-09-21T00:32:01.132Z,8.10
2022-09-21T00:34:48.532Z,8.00
2022-09-21T00:37:37.261Z,8.00
2022-09-21T00:40:24.598Z,8.10
2022-09-21T00:43:13.834Z,8.10
2022-09-21T00:46:04.083Z,8.10
2022-09-21T00:48:51.086Z,8.10
2022-09-21T00:51:38.942Z,8.10
2022-09-21T00:54:30.887Z,8.00
2022-09-21T00:57:20.760Z,8.00
2022-09-21T01:00:11.106Z,8.00
2022-09-21T01:03:01.376Z,8.00
2022-09-21T01:05:48.999Z,8.00
2022-09-21T01:08:37.728Z,8.00
2022-09-21T01:11:34.385Z,8.00
2022-09-21T01:14:37.793Z,8.00
2022-09-21T01:17:34.826Z,8.00
2022-09-21T01:20:55.666Z,7.90
2022-09-21T01:24:17.614Z,7.90
2022-09-21T01:27:37.682Z,8.00
2022-09-21T01:30:26.832Z,7.90
2022-09-21T01:33:18.838Z,7.90
2022-09-21T01:36:10.552Z,7.90
2022-09-21T01:39:02.707Z,7.90
2022-09-21T01:41:53.219Z,7.90
2022-09-21T01:44:43.198Z,7.90
2022-09-21T01:47:32.557Z,7.90
2022-09-21T01:50:21.399Z,7.80
2022-09-21T01:53:12.533Z,7.90
2022-09-21T01:56:02.189Z,7.80
2022-09-21T01:58:58.532Z,7.80
2022-09-21T02:01:51.114Z,7.80
2022-09-21T02:04:39.930Z,7.80
2022-09-21T02:07:27.901Z,7.80
2022-09-21T02:11:06.163Z,7.70
2022-09-21T02:13:56.053Z,7.70
2022-09-21T02:16:49.881Z,7.70
2022-09-21T02:19:46.142Z,7.70
2022-09-21T02:22:40.800Z,7.70
2022-09-21T02:25:35.751Z,7.70
2022-09-21T02:33:42.849Z,7.70
2022-09-21T02:41:45.634Z,7.60
2022-09-21T02:44:36.357Z,7.50
2022-09-21T02:47:28.426Z,7.50
2022-09-21T02:50:20.162Z,7.30
2022-09-21T02:53:10.046Z,7.20
2022-09-21T02:56:02.938Z,7.20
2022-09-21T02:58:55.638Z,7.30
2022-09-21T03:01:43.482Z,7.30
2022-09-21T03:04:30.665Z,7.30
2022-09-21T03:07:18.719Z,7.30
2022-09-21T03:10:08.203Z,7.40
2022-09-21T03:12:58.757Z,7.40
2022-09-21T03:15:47.866Z,7.40
2022-09-21T03:18:35.388Z,7.50
2022-09-21T03:21:23.013Z,7.50
2022-09-21T03:24:10.131Z,7.40
2022-09-21T03:26:57.625Z,7.40
2022-09-21T03:29:44.762Z,7.50
2022-09-21T03:32:33.016Z,7.50
2022-09-21T03:35:21.600Z,7.50
2022-09-21T03:38:08.826Z,7.50
2022-09-21T03:40:57.818Z,7.40
2022-09-21T03:43:45.031Z,7.40
2022-09-21T03:46:35.183Z,7.30
2022-09-21T03:49:23.990Z,7.40
2022-09-21T03:52:11.341Z,7.40
2022-09-21T03:54:58.581Z,7.40
2022-09-21T03:57:45.685Z,7.40
2022-09-21T04:00:33.280Z,7.30
2022-09-21T04:03:20.678Z,7.30
2022-09-21T04:06:11.997Z,7.40
2022-09-21T04:09:00.275Z,7.20
2022-09-21T04:16:58.591Z,7.30
2022-09-21T04:19:46.003Z,7.30
2022-09-21T04:22:36.337Z,7.10
2022-09-21T04:25:25.518Z,7.20
2022-09-21T04:28:13.029Z,7.20
2022-09-21T04:31:00.460Z,7.20
2022-09-21T04:33:49.671Z,7.20
2022-09-21T04:36:37.059Z,7.10
2022-09-21T04:39:25.815Z,7.00
2022-09-21T04:42:20.519Z,7.00
2022-09-21T04:45:08.881Z,7.10
2022-09-21T04:47:56.610Z,7.10
2022-09-21T04:50:43.749Z,7.10
2022-09-21T04:53:30.697Z,7.20
2022-09-21T04:56:19.532Z,7.20
2022-09-21T04:59:06.968Z,7.10
2022-09-21T05:01:54.001Z,7.20
2022-09-21T05:04:41.409Z,7.20
2022-09-21T05:07:28.765Z,7.20
2022-09-21T05:10:15.056Z,7.30
2022-09-21T05:13:03.526Z,7.30
2022-09-21T05:15:50.705Z,7.30
2022-09-21T05:18:38.217Z,7.30
2022-09-21T05:21:25.173Z,7.40
2022-09-21T05:24:12.447Z,7.40
2022-09-21T05:26:59.862Z,7.40
2022-09-21T05:29:49.101Z,7.40
2022-09-21T05:32:46.333Z,7.50
2022-09-21T05:35:39.461Z,7.50
2022-09-21T05:38:26.799Z,7.60
2022-09-21T05:41:14.871Z,7.60
2022-09-21T05:44:02.481Z,7.70
2022-09-21T05:46:56.466Z,7.70
2022-09-21T05:49:55.446Z,7.70
2022-09-21T05:52:50.326Z,7.80
2022-09-21T05:55:51.589Z,7.80
2022-09-21T05:58:47.853Z,7.90
2022-09-21T06:01:47.350Z,8.00
2022-09-21T06:04:36.702Z,8.10
2022-09-21T06:07:24.149Z,8.20
2022-09-21T06:15:02.531Z,8.40
2022-09-21T06:17:49.973Z,8.60
2022-09-21T06:20:38.692Z,8.60
2022-09-21T06:23:25.435Z,8.70
2022-09-21T06:26:12.848Z,8.80
2022-09-21T06:29:00.298Z,8.80
2022-09-21T06:31:47.769Z,8.90
2022-09-21T06:34:35.120Z,9.00
2022-09-21T06:37:23.692Z,9.10
2022-09-21T06:41:01.225Z,9.10
2022-09-21T06:43:48.135Z,9.30
2022-09-21T06:46:35.445Z,9.50
2022-09-21T06:49:22.785Z,9.50
2022-09-21T06:52:09.882Z,9.60
2022-09-21T06:54:58.596Z,9.60
2022-09-21T06:58:12.557Z,9.60
2022-09-21T07:00:59.852Z,9.70
2022-09-21T07:03:50.825Z,9.80
2022-09-21T07:06:38.002Z,9.90
2022-09-21T07:12:34.521Z,10.00
2022-09-21T07:15:22.012Z,10.10
2022-09-21T07:18:13.652Z,10.10
2022-09-21T07:21:03.733Z,10.20
2022-09-21T07:23:50.775Z,10.30
2022-09-21T07:26:38.225Z,10.40
2022-09-21T07:29:26.898Z,10.40
2022-09-21T07:32:14.686Z,10.50
2022-09-21T07:35:02.426Z,10.60
2022-09-21T07:37:49.403Z,10.60
2022-09-21T07:40:37.098Z,10.80
2022-09-21T07:43:24.626Z,10.80
2022-09-21T07:46:15.472Z,10.90
2022-09-21T07:49:04.365Z,11.10
2022-09-21T07:51:51.533Z,11.20
2022-09-21T07:54:38.663Z,11.30
2022-09-21T07:57:43.291Z,11.30
2022-09-21T08:00:32.702Z,11.40
2022-09-21T08:03:21.122Z,11.40
2022-09-21T08:06:09.219Z,11.50
2022-09-21T08:08:58.007Z,11.50
2022-09-21T08:11:46.671Z,11.50
2022-09-21T08:14:33.880Z,11.70
2022-09-21T08:17:21.148Z,11.80
2022-09-21T08:20:10.806Z,12.00
2022-09-21T08:22:58.267Z,12.20
2022-09-21T08:25:45.504Z,12.40
2022-09-21T08:28:33.822Z,12.10
2022-09-21T08:31:24.072Z,12.10
2022-09-21T08:34:11.302Z,12.10
2022-09-21T08:36:59.712Z,12.40
2022-09-21T08:39:47.150Z,12.60
2022-09-21T08:42:41.313Z,12.70
2022-09-21T08:45:35.069Z,12.70
2022-09-21T08:48:30.013Z,12.80
2022-09-21T08:51:25.077Z,12.70
2022-09-21T08:54:20.343Z,12.90
2022-09-21T08:57:12.839Z,12.90
2022-09-21T09:00:01.492Z,12.80
2022-09-21T09:03:11.167Z,13.10
2022-09-21T09:06:02.733Z,13.20
2022-09-21T09:09:13.592Z,13.10
2022-09-21T09:12:18.454Z,13.10
2022-09-21T09:15:31.211Z,13.50
2022-09-21T09:18:28.846Z,13.80
2022-09-21T09:21:29.185Z,13.80
2022-09-21T09:24:25.789Z,14.00
2022-09-21T09:27:21.571Z,13.90
2022-09-21T09:30:17.439Z,14.00
2022-09-21T09:33:09.341Z,14.30
2022-09-21T09:36:02.667Z,14.50
2022-09-21T09:38:57.337Z,14.60
2022-09-21T09:42:01.627Z,14.90
2022-09-21T09:45:18.249Z,14.80
2022-09-21T09:48:23.709Z,15.10
2022-09-21T09:51:12.925Z,15.30
2022-09-21T09:54:01.427Z,14.90
2022-09-21T09:56:48.929Z,14.80
2022-09-21T09:59:40.852Z,14.90
2022-09-21T10:02:30.854Z,15.50
2022-09-21T10:05:25.018Z,15.30
2022-09-21T10:08:28.412Z,15.70
2022-09-21T10:11:17.178Z,15.50
2022-09-21T10:14:10.483Z,15.30
2022-09-21T10:16:59.663Z,15.80
2022-09-21T10:19:48.189Z,15.90
2022-09-21T10:22:35.586Z,15.70
2022-09-21T10:25:24.481Z,16.00
2022-09-21T10:28:13.251Z,16.10
2022-09-21T10:31:11.226Z,16.20
2022-09-21T10:34:14.222Z,16.30
2022-09-21T10:37:04.554Z,16.00
2022-09-21T10:39:51.758Z,16.00
2022-09-21T10:42:43.611Z,16.20
2022-09-21T10:45:32.565Z,16.20
2022-09-21T10:48:23.539Z,16.00
2022-09-21T10:51:27.227Z,15.80
2022-09-21T10:54:22.796Z,15.70
2022-09-21T10:57:15.719Z,15.70
2022-09-21T11:00:29.240Z,16.10
2022-09-21T11:03:48.630Z,16.10
2022-09-21T11:06:39.104Z,16.30
2022-09-21T11:09:33.080Z,16.40
2022-09-21T11:12:42.863Z,16.50
2022-09-21T11:15:45.765Z,16.50
2022-09-21T11:18:41.167Z,16.40
2022-09-21T11:21:42.737Z,16.00
2022-09-21T11:24:39.787Z,15.90
2022-09-21T11:27:32.076Z,16.10
2022-09-21T11:30:21.115Z,16.20
2022-09-21T11:33:24.148Z,16.30
2022-09-21T11:36:23.070Z,16.50
2022-09-21T11:39:22.518Z,16.80
2022-09-21T11:42:21.170Z,17.10
2022-09-21T11:45:28.614Z,17.20
2022-09-21T11:48:24.970Z,17.20
2022-09-21T11:51:37.567Z,16.90
2022-09-21T11:55:13.414Z,16.60
2022-09-21T11:58:10.359Z,16.10
2022-09-21T12:01:10.026Z,15.90
2022-09-21T12:04:19.560Z,15.90
2022-09-21T12:07:20.389Z,15.80
2022-09-21T12:10:35.562Z,15.90
2022-09-21T12:13:33.893Z,16.10
2022-09-21T12:16:28.961Z,16.30
2022-09-21T12:19:25.071Z,16.40
2022-09-21T12:22:17.667Z,16.60
2022-09-21T12:25:13.811Z,16.60
2022-09-21T12:28:05.205Z,16.20
2022-09-21T12:31:00.576Z,16.00
2022-09-21T12:33:52.139Z,15.90
2022-09-21T12:36:44.441Z,16.00
2022-09-21T12:44:52.858Z,15.80
2022-09-21T12:47:49.949Z,16.00
2022-09-21T12:50:44.339Z,16.10
2022-09-21T12:54:46.234Z,16.20
2022-09-21T12:58:14.668Z,16.20
2022-09-21T13:01:11.877Z,16.50
2022-09-21T13:04:13.820Z,16.40
2022-09-21T13:07:33.865Z,16.40
2022-09-21T13:10:31.476Z,16.20
2022-09-21T13:13:27.877Z,15.90
2022-09-21T13:16:26.436Z,15.80
2022-09-21T13:19:22.894Z,15.60
2022-09-21T13:22:22.374Z,15.70
2022-09-21T13:25:21.838Z,15.90
2022-09-21T13:28:24.153Z,16.00
2022-09-21T13:35:16.213Z,16.30
2022-09-21T13:38:26.518Z,16.30
2022-09-21T13:41:45.444Z,16.00
2022-09-21T13:44:44.087Z,15.90
2022-09-21T13:47:33.291Z,15.70
2022-09-21T13:50:27.817Z,15.60
2022-09-21T13:53:20.981Z,15.70
2022-09-21T13:56:16.935Z,15.90
2022-09-21T13:59:04.878Z,16.00
2022-09-21T14:01:51.925Z,16.10
2022-09-21T14:04:39.372Z,15.90
2022-09-21T14:07:32.059Z,15.80
2022-09-21T14:10:22.431Z,15.50
2022-09-21T14:13:29.222Z,15.40
2022-09-21T14:16:52.105Z,15.50
2022-09-21T14:20:29.537Z,15.70
2022-09-21T14:23:30.250Z,15.70
2022-09-21T14:26:32.889Z,15.70
2022-09-21T14:29:25.191Z,15.70
2022-09-21T14:32:17.446Z,15.80
2022-09-21T14:35:11.294Z,15.90
2022-09-21T14:38:01.702Z,15.90
2022-09-21T14:40:52.967Z,15.80
2022-09-21T14:43:40.223Z,15.90
2022-09-21T14:46:46.530Z,15.80
2022-09-21T14:50:01.773Z,15.90
2022-09-21T14:53:28.060Z,15.90
2022-09-21T14:56:30.182Z,16.00
2022-09-21T14:59:39.361Z,16.10
2022-09-21T15:02:28.671Z,16.20
2022-09-21T15:05:24.152Z,16.30
2022-09-21T15:08:54.189Z,16.20
2022-09-21T15:11:47.801Z,16.20
2022-09-21T15:14:38.441Z,16.00
2022-09-21T15:17:27.224Z,15.90
2022-09-21T15:20:19.600Z,15.80
2022-09-21T15:23:19.823Z,15.70
2022-09-21T15:26:11.347Z,15.60
2022-09-21T15:29:11.286Z,15.60
2022-09-21T15:31:59.670Z,15.70
2022-09-21T15:34:46.747Z,15.70
2022-09-21T15:37:37.333Z,15.70
2022-09-21T15:40:25.759Z,15.80
2022-09-21T15:43:20.945Z,15.70
2022-09-21T15:46:12.415Z,15.80
2022-09-21T15:49:01.683Z,15.70
2022-09-21T15:51:53.581Z,15.70
2022-09-21T15:54:46.018Z,15.70
2022-09-21T15:57:39.148Z,15.70
2022-09-21T16:00:31.167Z,15.70
2022-09-21T16:03:22.160Z,15.70
2022-09-21T16:06:24.619Z,15.70
2022-09-21T16:09:40.419Z,15.60
2022-09-21T16:12:42.458Z,15.50
2022-09-21T16:15:31.886Z,15.50
2022-09-21T16:18:35.695Z,15.40
2022-09-21T16:21:24.839Z,15.40
2022-09-21T16:24:19.012Z,15.30
2022-09-21T16:27:06.474Z,15.30
2022-09-21T16:29:56.400Z,15.20
2022-09-21T16:32:43.751Z,15.20
2022-09-21T16:35:40.846Z,15.10
2022-09-21T16:38:28.017Z,15.10
2022-09-21T16:41:15.718Z,15.00
2022-09-21T16:44:03.939Z,15.00
2022-09-21T16:46:57.352Z,14.90
2022-09-21T16:49:45.076Z,14.80
2022-09-21T16:52:33.443Z,14.80
2022-09-21T16:55:23.458Z,14.60
2022-09-21T16:58:13.879Z,14.60
2022-09-21T17:01:02.760Z,14.50
2022-09-21T17:03:49.833Z,14.30
2022-09-21T17:06:36.779Z,14.30
2022-09-21T17:09:29.812Z,14.20
2022-09-21T17:12:18.874Z,14.30
2022-09-21T17:15:07.843Z,14.10
2022-09-21T17:17:58.140Z,14.10
2022-09-21T17:20:46.202Z,14.00
2022-09-21T17:23:33.172Z,13.90
2022-09-21T17:26:21.537Z,13.80
2022-09-21T17:29:23.186Z,13.70
2022-09-21T17:32:11.762Z,13.60
2022-09-21T17:35:09.836Z,13.40
2022-09-21T17:37:56.940Z,13.30
2022-09-21T17:40:44.418Z,13.10
2022-09-21T17:43:42.006Z,13.10
2022-09-21T17:46:35.779Z,13.00
2022-09-21T17:49:23.216Z,12.90
2022-09-21T17:52:33.908Z,12.70
2022-09-21T17:55:21.482Z,12.80
2022-09-21T17:58:33.594Z,12.80
2022-09-21T18:01:29.110Z,12.80
2022-09-21T18:04:17.357Z,12.70
2022-09-21T18:07:05.131Z,12.50
2022-09-21T18:09:52.850Z,12.40
2022-09-21T18:12:54.027Z,12.30
2022-09-21T18:15:51.034Z,12.20
2022-09-21T18:18:45.505Z,12.20
2022-09-21T18:21:38.440Z,12.10
2022-09-21T18:24:30.964Z,12.00
2022-09-21T18:27:19.969Z,11.90
2022-09-21T18:30:08.438Z,11.90
2022-09-21T18:33:10.564Z,11.80
2022-09-21T18:36:15.362Z,11.70
2022-09-21T18:39:15.199Z,11.70
2022-09-21T18:42:15.603Z,11.60
2022-09-21T18:45:06.533Z,11.70
2022-09-21T18:48:08.210Z,11.60
2022-09-21T18:51:02.357Z,11.60
2022-09-21T18:53:55.760Z,11.60
2022-09-21T18:56:42.929Z,11.60
2022-09-21T18:59:32.069Z,11.50
2022-09-21T19:02:20.649Z,11.40
2022-09-21T19:05:12.519Z,11.40
2022-09-21T19:08:10.188Z,11.30
2022-09-21T19:11:05.246Z,11.30
2022-09-21T19:14:00.847Z,11.30
2022-09-21T19:17:02.794Z,11.20
2022-09-21T19:20:02.870Z,11.30
2022-09-21T19:22:56.503Z,10.90
2022-09-21T19:25:49.777Z,10.80
2022-09-21T19:29:00.004Z,10.70
2022-09-21T19:31:47.611Z,10.70
2022-09-21T19:34:35.222Z,10.60
2022-09-21T19:37:22.717Z,10.60
2022-09-21T19:40:10.910Z,10.60
2022-09-21T19:43:14.091Z,10.60
2022-09-21T19:46:17.758Z,10.50
2022-09-21T19:49:13.457Z,10.40
2022-09-21T19:52:05.659Z,10.40
2022-09-21T19:55:10.789Z,10.40
2022-09-21T19:58:16.026Z,10.30
2022-09-21T20:01:03.565Z,10.20
2022-09-21T20:03:53.667Z,10.20
2022-09-21T20:06:46.350Z,10.10
2022-09-21T20:09:42.050Z,9.90
2022-09-21T20:12:38.421Z,9.80
2022-09-21T20:15:33.624Z,9.90
2022-09-21T20:18:28.151Z,10.00
2022-09-21T20:21:22.198Z,9.90
2022-09-21T20:24:20.648Z,10.00
2022-09-21T20:27:21.298Z,10.00
2022-09-21T20:30:11.195Z,9.80
2022-09-21T20:33:01.935Z,9.90
2022-09-21T20:35:49.971Z,9.90
2022-09-21T20:38:38.358Z,9.90
2022-09-21T20:41:25.515Z,9.90
2022-09-21T20:44:14.365Z,10.00
2022-09-21T20:47:01.401Z,10.00
2022-09-21T20:49:49.226Z,10.10
2022-09-21T20:52:36.462Z,10.10
2022-09-21T20:55:25.179Z,10.20
2022-09-21T20:58:12.926Z,10.10
2022-09-21T21:01:04.419Z,10.00
2022-09-21T21:03:51.765Z,9.70
2022-09-21T21:06:38.883Z,9.70
2022-09-21T21:09:28.221Z,9.70
2022-09-21T21:12:16.616Z,9.90
2022-09-21T21:15:03.993Z,9.90
2022-09-21T21:17:51.349Z,10.00
2022-09-21T21:20:39.390Z,10.00
2022-09-21T21:23:26.303Z,10.00
2022-09-21T21:26:13.491Z,10.10
2022-09-21T21:29:02.371Z,10.20
2022-09-21T21:31:50.967Z,10.20
2022-09-21T21:34:38.286Z,10.10
2022-09-21T21:37:27.010Z,10.20
2022-09-21T21:40:15.030Z,10.20
2022-09-21T21:43:03.788Z,10.00
2022-09-21T21:45:56.722Z,10.10
2022-09-21T21:48:47.290Z,10.20
2022-09-21T21:51:34.858Z,10.00
2022-09-21T21:54:23.376Z,10.00
2022-09-21T21:57:10.939Z,10.00
2022-09-21T21:59:57.975Z,10.10
2022-09-21T22:02:46.836Z,10.00
2022-09-21T22:05:35.566Z,10.00
2022-09-21T22:08:22.594Z,10.20
2022-09-21T22:11:09.639Z,10.10
2022-09-21T22:13:57.796Z,10.10
2022-09-21T22:16:44.897Z,10.10
2022-09-21T22:19:33.172Z,10.20
2022-09-21T22:22:20.530Z,10.10
2022-09-21T22:25:08.658Z,10.00
2022-09-21T22:27:56.396Z,10.00
2022-09-21T22:30:49.809Z,10.00
2022-09-21T22:33:37.383Z,10.00
2022-09-21T22:36:26.965Z,10.00
2022-09-21T22:39:14.163Z,10.10
2022-09-21T22:42:01.543Z,10.20
2022-09-21T22:44:48.590Z,10.30
2022-09-21T22:47:35.849Z,10.10
2022-09-21T22:50:23.309Z,10.00
2022-09-21T22:53:11.952Z,10.00
2022-09-21T22:56:04.693Z,9.90
2022-09-21T22:58:55.125Z,9.90
2022-09-21T23:01:42.147Z,9.90
2022-09-21T23:04:29.467Z,10.00
2022-09-21T23:07:17.095Z,10.00
2022-09-21T23:10:06.509Z,10.00
2022-09-21T23:12:54.539Z,9.80
2022-09-21T23:15:41.773Z,9.70
2022-09-21T23:18:28.423Z,9.80
2022-09-21T23:21:17.441Z,9.90
2022-09-21T23:24:05.331Z,9.80
2022-09-21T23:26:54.153Z,9.90
2022-09-21T23:29:41.410Z,10.00
2022-09-21T23:32:28.590Z,10.00
2022-09-21T23:35:15.856Z,10.00
2022-09-21T23:38:03.145Z,10.00
2022-09-21T23:40:50.565Z,10.10
2022-09-21T23:43:40.970Z,10.10
2022-09-21T23:46:30.224Z,10.00
2022-09-21T23:49:17.153Z,10.00
2022-09-21T23:52:04.349Z,10.00
2022-09-21T23:54:51.328Z,10.00
2022-09-21T23:57:38.623Z,10.00
